createdAt,value
2022-10-26T00:00:38.075Z,95703
2022-10-26T00:01:47.815Z,95708
2022-10-26T00:02:56.433Z,95708
2022-10-26T00:04:06.086Z,95708
2022-10-26T00:05:14.777Z,95704
2022-10-26T00:06:23.476Z,95707
2022-10-26T00:07:33.190Z,95712
2022-10-26T00:08:40.892Z,95708
2022-10-26T00:09:49.579Z,95707
2022-10-26T00:10:58.266Z,95698
2022-10-26T00:12:08.083Z,95697
2022-10-26T00:13:18.068Z,95702
2022-10-26T00:14:26.785Z,95700
2022-10-26T00:15:35.579Z,95700
2022-10-26T00:16:45.242Z,95696
2022-10-26T00:17:52.992Z,95696
2022-10-26T00:19:02.691Z,95691
2022-10-26T00:20:11.385Z,95693
2022-10-26T00:21:20.103Z,95694
2022-10-26T00:22:29.794Z,95691
2022-10-26T00:23:37.496Z,95689
2022-10-26T00:24:47.172Z,95690
2022-10-26T00:25:56.871Z,95691
2022-10-26T00:27:05.549Z,95693
2022-10-26T00:28:14.233Z,95688
2022-10-26T00:29:23.940Z,95683
2022-10-26T00:30:32.641Z,95678
2022-10-26T00:31:42.398Z,95679
2022-10-26T00:32:51.105Z,95682
2022-10-26T00:33:59.758Z,95678
2022-10-26T00:35:15.794Z,95673
2022-10-26T00:36:20.132Z,95674
2022-10-26T00:37:28.888Z,95677
2022-10-26T00:38:38.569Z,95671
2022-10-26T00:39:47.234Z,95675
2022-10-26T00:42:05.604Z,95673
2022-10-26T00:43:15.305Z,95666
2022-10-26T00:44:25.012Z,95664
2022-10-26T00:45:35.675Z,95662
2022-10-26T00:46:44.390Z,95665
2022-10-26T00:47:54.052Z,95660
2022-10-26T00:49:02.836Z,95660
2022-10-26T00:50:12.539Z,95658
2022-10-26T00:51:21.275Z,95659
2022-10-26T00:52:29.994Z,95656
2022-10-26T00:53:39.696Z,95650
2022-10-26T00:54:48.405Z,95651
2022-10-26T00:55:57.086Z,95656
2022-10-26T00:57:03.815Z,95657
2022-10-26T00:58:12.513Z,95657
2022-10-26T00:59:22.175Z,95659
2022-10-26T01:00:31.883Z,95665
2022-10-26T01:01:41.628Z,95661
2022-10-26T01:02:50.655Z,95668
2022-10-26T01:04:00.262Z,95663
2022-10-26T01:05:09.984Z,95664
2022-10-26T01:06:18.687Z,95657
2022-10-26T01:07:27.408Z,95661
2022-10-26T01:08:37.102Z,95658
2022-10-26T01:09:46.809Z,95663
2022-10-26T01:10:56.505Z,95665
2022-10-26T01:12:05.232Z,95664
2022-10-26T01:13:13.910Z,95669
2022-10-26T01:14:23.617Z,95666
2022-10-26T01:15:33.505Z,95662
2022-10-26T01:16:42.769Z,95663
2022-10-26T01:17:52.053Z,95665
2022-10-26T01:19:00.552Z,95681
2022-10-26T01:20:10.236Z,95685
2022-10-26T01:21:17.925Z,95686
2022-10-26T01:22:27.614Z,95684
2022-10-26T01:23:37.291Z,95685
2022-10-26T01:24:45.992Z,95682
2022-10-26T01:25:54.676Z,95679
2022-10-26T01:27:03.387Z,95675
2022-10-26T01:28:12.067Z,95675
2022-10-26T01:29:21.767Z,95673
2022-10-26T01:30:30.580Z,95666
2022-10-26T01:31:39.281Z,95671
2022-10-26T01:32:48.993Z,95668
2022-10-26T01:33:57.658Z,95668
2022-10-26T01:35:06.368Z,95672
2022-10-26T01:36:16.017Z,95672
2022-10-26T01:37:24.685Z,95685
2022-10-26T01:38:34.419Z,95691
2022-10-26T01:39:43.099Z,95683
2022-10-26T01:40:50.779Z,95686
2022-10-26T01:42:00.496Z,95699
2022-10-26T01:43:08.155Z,95707
2022-10-26T01:44:16.850Z,95705
2022-10-26T01:45:25.521Z,95699
2022-10-26T01:46:34.201Z,95705
2022-10-26T01:47:43.869Z,95705
2022-10-26T01:48:52.552Z,95711
2022-10-26T01:50:00.252Z,95710
2022-10-26T01:51:09.984Z,95705
2022-10-26T01:52:17.636Z,95695
2022-10-26T01:53:27.334Z,95695
2022-10-26T01:55:45.721Z,95679
2022-10-26T01:56:55.423Z,95678
2022-10-26T01:58:03.105Z,95671
2022-10-26T01:59:12.792Z,95674
2022-10-26T02:00:22.511Z,95668
2022-10-26T02:01:30.287Z,95658
2022-10-26T02:02:39.944Z,95664
2022-10-26T02:03:48.678Z,95665
2022-10-26T02:04:57.310Z,95666
2022-10-26T02:06:06.985Z,95663
2022-10-26T02:07:15.699Z,95663
2022-10-26T02:08:25.608Z,95666
2022-10-26T02:09:35.110Z,95668
2022-10-26T02:10:42.801Z,95680
2022-10-26T02:11:51.492Z,95685
2022-10-26T02:13:00.189Z,95674
2022-10-26T02:14:08.940Z,95673
2022-10-26T02:15:18.876Z,95672
2022-10-26T02:16:27.280Z,95669
2022-10-26T02:17:36.106Z,95679
2022-10-26T02:18:45.957Z,95685
2022-10-26T02:19:55.640Z,95683
2022-10-26T02:21:05.331Z,95681
2022-10-26T02:22:14.129Z,95678
2022-10-26T02:23:22.854Z,95671
2022-10-26T02:24:33.541Z,95663
2022-10-26T02:25:42.269Z,95665
2022-10-26T02:26:51.980Z,95673
2022-10-26T02:28:01.671Z,95674
2022-10-26T02:29:10.327Z,95691
2022-10-26T02:30:19.033Z,95687
2022-10-26T02:31:27.743Z,95691
2022-10-26T02:32:37.469Z,95686
2022-10-26T02:33:47.199Z,95686
2022-10-26T02:34:55.869Z,95694
2022-10-26T02:36:04.581Z,95703
2022-10-26T02:37:14.247Z,95697
2022-10-26T02:38:22.929Z,95693
2022-10-26T02:39:32.649Z,95681
2022-10-26T02:40:42.294Z,95675
2022-10-26T02:41:50.987Z,95682
2022-10-26T02:43:00.684Z,95694
2022-10-26T02:44:10.394Z,95708
2022-10-26T02:45:20.067Z,95711
2022-10-26T02:46:29.752Z,95706
2022-10-26T02:47:38.459Z,95702
2022-10-26T02:48:47.139Z,95702
2022-10-26T02:49:55.828Z,95704
2022-10-26T02:51:05.510Z,95700
2022-10-26T02:52:15.177Z,95696
2022-10-26T02:53:24.922Z,95701
2022-10-26T02:54:34.618Z,95696
2022-10-26T02:55:43.275Z,95705
2022-10-26T02:56:51.935Z,95703
2022-10-26T02:58:01.623Z,95700
2022-10-26T02:59:10.329Z,95690
2022-10-26T03:00:18.993Z,95684
2022-10-26T03:01:27.693Z,95678
2022-10-26T03:02:36.340Z,95670
2022-10-26T03:03:47.053Z,95669
2022-10-26T03:04:55.747Z,95666
2022-10-26T03:06:04.406Z,95662
2022-10-26T03:07:14.078Z,95658
2022-10-26T03:08:22.843Z,95659
2022-10-26T03:09:32.474Z,95656
2022-10-26T03:10:41.198Z,95652
2022-10-26T03:11:50.880Z,95660
2022-10-26T03:13:00.566Z,95669
2022-10-26T03:14:07.267Z,95674
2022-10-26T03:15:16.946Z,95676
2022-10-26T03:16:26.670Z,95676
2022-10-26T03:17:35.377Z,95671
2022-10-26T03:18:44.101Z,95663
2022-10-26T03:19:52.779Z,95651
2022-10-26T03:21:01.452Z,95633
2022-10-26T03:22:11.303Z,95622
2022-10-26T03:23:19.033Z,95623
2022-10-26T03:24:28.713Z,95634
2022-10-26T03:25:38.388Z,95634
2022-10-26T03:26:48.107Z,95642
2022-10-26T03:27:57.785Z,95645
2022-10-26T03:29:06.459Z,95640
2022-10-26T03:30:16.265Z,95641
2022-10-26T03:31:25.957Z,95637
2022-10-26T03:32:33.678Z,95635
2022-10-26T03:33:42.383Z,95634
2022-10-26T03:34:52.058Z,95635
2022-10-26T03:36:00.719Z,95638
2022-10-26T03:37:09.388Z,95639
2022-10-26T03:38:20.069Z,95639
2022-10-26T03:39:28.787Z,95649
2022-10-26T03:40:38.501Z,95650
2022-10-26T03:41:47.211Z,95651
2022-10-26T03:42:55.906Z,95655
2022-10-26T03:44:05.595Z,95656
2022-10-26T03:45:13.423Z,95650
2022-10-26T03:46:22.102Z,95643
2022-10-26T03:47:31.793Z,95647
2022-10-26T03:48:40.478Z,95642
2022-10-26T03:49:50.159Z,95646
2022-10-26T03:50:58.865Z,95649
2022-10-26T03:52:07.550Z,95652
2022-10-26T03:53:17.245Z,95653
2022-10-26T03:54:24.975Z,95644
2022-10-26T03:55:32.685Z,95652
2022-10-26T03:56:41.407Z,95645
2022-10-26T03:57:51.107Z,95648
2022-10-26T03:59:00.817Z,95649
2022-10-26T04:00:09.519Z,95653
2022-10-26T04:01:18.256Z,95654
2022-10-26T04:02:26.900Z,95655
2022-10-26T04:03:34.601Z,95653
2022-10-26T04:04:43.355Z,95644
2022-10-26T04:05:52.992Z,95644
2022-10-26T04:07:01.648Z,95647
2022-10-26T04:08:11.412Z,95654
2022-10-26T04:09:20.104Z,95655
2022-10-26T04:10:28.848Z,95664
2022-10-26T04:11:38.584Z,95672
2022-10-26T04:12:47.283Z,95667
2022-10-26T04:13:56.991Z,95664
2022-10-26T04:15:06.805Z,95664
2022-10-26T04:16:15.458Z,95660
2022-10-26T04:17:26.155Z,95669
2022-10-26T04:18:34.897Z,95670
2022-10-26T04:19:44.623Z,95673
2022-10-26T04:20:54.341Z,95679
2022-10-26T04:22:02.028Z,95671
2022-10-26T04:23:10.776Z,95670
2022-10-26T04:24:19.412Z,95673
2022-10-26T04:25:28.845Z,95677
2022-10-26T04:26:37.883Z,95670
2022-10-26T04:27:45.569Z,95667
2022-10-26T04:28:54.265Z,95665
2022-10-26T04:30:03.989Z,95666
2022-10-26T04:31:13.708Z,95667
2022-10-26T04:32:22.372Z,95663
2022-10-26T04:33:31.048Z,95668
2022-10-26T04:34:39.781Z,95672
2022-10-26T04:35:49.460Z,95673
2022-10-26T04:36:57.251Z,95673
2022-10-26T04:38:05.969Z,95674
2022-10-26T04:39:15.784Z,95670
2022-10-26T04:40:23.510Z,95675
2022-10-26T04:41:32.210Z,95673
2022-10-26T04:42:40.910Z,95673
2022-10-26T04:43:50.591Z,95673
2022-10-26T04:45:01.254Z,95670
2022-10-26T04:46:12.189Z,95671
2022-10-26T04:47:18.654Z,95671
2022-10-26T04:48:28.359Z,95678
2022-10-26T04:49:36.026Z,95678
2022-10-26T04:50:45.716Z,95685
2022-10-26T04:51:54.402Z,95688
2022-10-26T04:53:03.095Z,95688
2022-10-26T04:54:11.824Z,95692
2022-10-26T04:55:19.510Z,95697
2022-10-26T04:56:29.186Z,95704
2022-10-26T04:57:36.867Z,95708
2022-10-26T04:58:45.569Z,95714
2022-10-26T04:59:55.276Z,95724
2022-10-26T05:01:05.089Z,95733
2022-10-26T05:02:14.907Z,95747
2022-10-26T05:03:23.501Z,95749
2022-10-26T05:04:32.216Z,95751
2022-10-26T05:05:41.949Z,95760
2022-10-26T05:06:49.642Z,95763
2022-10-26T05:07:59.376Z,95774
2022-10-26T05:09:09.077Z,95778
2022-10-26T05:10:16.764Z,95782
2022-10-26T05:11:26.478Z,95788
2022-10-26T05:12:35.160Z,95792
2022-10-26T05:13:44.846Z,95795
2022-10-26T05:14:54.549Z,95806
2022-10-26T05:16:02.231Z,95809
2022-10-26T05:17:10.956Z,95806
2022-10-26T05:18:20.644Z,95807
2022-10-26T05:19:29.347Z,95806
2022-10-26T05:20:38.011Z,95807
2022-10-26T05:21:46.721Z,95811
2022-10-26T05:22:55.574Z,95816
2022-10-26T05:24:07.624Z,95813
2022-10-26T05:25:15.944Z,95819
2022-10-26T05:26:24.624Z,95816
2022-10-26T05:27:34.333Z,95810
2022-10-26T05:28:43.176Z,95803
2022-10-26T05:29:51.862Z,95803
2022-10-26T05:31:00.528Z,95802
2022-10-26T05:32:10.212Z,95800
2022-10-26T05:33:19.896Z,95791
2022-10-26T05:34:28.619Z,95797
2022-10-26T05:35:37.335Z,95794
2022-10-26T05:36:46.998Z,95795
2022-10-26T05:37:56.693Z,95801
2022-10-26T05:39:05.381Z,95806
2022-10-26T05:40:15.111Z,95799
2022-10-26T05:41:23.786Z,95804
2022-10-26T05:42:33.454Z,95799
2022-10-26T05:43:42.113Z,95802
2022-10-26T05:44:51.841Z,95809
2022-10-26T05:46:01.583Z,95823
2022-10-26T05:47:10.284Z,95827
2022-10-26T05:48:18.966Z,95832
2022-10-26T05:49:28.664Z,95831
2022-10-26T05:50:37.348Z,95828
2022-10-26T05:51:47.174Z,95831
2022-10-26T05:52:56.850Z,95832
2022-10-26T05:54:08.331Z,95832
2022-10-26T05:55:17.190Z,95828
2022-10-26T05:56:26.897Z,95832
2022-10-26T05:57:36.580Z,95832
2022-10-26T05:58:45.256Z,95835
2022-10-26T05:59:53.940Z,95843
2022-10-26T06:01:03.690Z,95847
2022-10-26T06:02:11.430Z,95842
2022-10-26T06:03:20.057Z,95852
2022-10-26T06:04:28.692Z,95853
2022-10-26T06:05:38.421Z,95851
2022-10-26T06:06:47.105Z,95855
2022-10-26T06:07:56.800Z,95855
2022-10-26T06:09:06.479Z,95854
2022-10-26T06:10:16.143Z,95865
2022-10-26T06:11:23.855Z,95858
2022-10-26T06:12:33.540Z,95859
2022-10-26T06:13:43.219Z,95876
2022-10-26T06:14:51.900Z,95876
2022-10-26T06:16:00.578Z,95874
2022-10-26T06:17:09.653Z,95866
2022-10-26T06:18:19.317Z,95867
2022-10-26T06:19:28.997Z,95868
2022-10-26T06:20:37.680Z,95867
2022-10-26T06:21:46.357Z,95873
2022-10-26T06:22:56.048Z,95876
2022-10-26T06:24:04.787Z,95873
2022-10-26T06:25:13.480Z,95875
2022-10-26T06:26:23.319Z,95875
2022-10-26T06:27:31.998Z,95870
2022-10-26T06:28:41.825Z,95868
2022-10-26T06:29:52.312Z,95869
2022-10-26T06:31:01.166Z,95863
2022-10-26T06:32:09.870Z,95869
2022-10-26T06:33:28.713Z,95868
2022-10-26T06:34:28.180Z,95865
2022-10-26T06:35:37.940Z,95866
2022-10-26T06:36:45.633Z,95863
2022-10-26T06:37:53.313Z,95868
2022-10-26T06:39:00.997Z,95871
2022-10-26T06:40:10.696Z,95876
2022-10-26T06:41:20.350Z,95876
2022-10-26T06:42:28.029Z,95879
2022-10-26T06:43:37.727Z,95879
2022-10-26T06:44:47.403Z,95881
2022-10-26T06:45:56.078Z,95880
2022-10-26T06:47:04.794Z,95878
2022-10-26T06:48:13.465Z,95884
2022-10-26T06:49:22.144Z,95879
2022-10-26T06:50:31.842Z,95879
2022-10-26T06:51:40.549Z,95872
2022-10-26T06:52:50.222Z,95873
2022-10-26T06:53:57.907Z,95874
2022-10-26T06:55:06.598Z,95875
2022-10-26T06:56:16.314Z,95875
2022-10-26T06:57:23.940Z,95878
2022-10-26T06:58:33.633Z,95872
2022-10-26T06:59:42.315Z,95872
2022-10-26T07:00:51.001Z,95873
2022-10-26T07:02:01.746Z,95874
2022-10-26T07:03:10.404Z,95879
2022-10-26T07:04:19.090Z,95875
2022-10-26T07:05:28.766Z,95878
2022-10-26T07:06:38.484Z,95875
2022-10-26T07:07:46.159Z,95872
2022-10-26T07:08:54.795Z,95863
2022-10-26T07:10:04.477Z,95872
2022-10-26T07:11:14.138Z,95871
2022-10-26T07:12:22.854Z,95867
2022-10-26T07:13:33.473Z,95874
2022-10-26T07:14:43.145Z,95874
2022-10-26T07:15:50.824Z,95876
2022-10-26T07:17:00.532Z,95872
2022-10-26T07:18:10.373Z,95876
2022-10-26T07:19:19.036Z,95881
2022-10-26T07:20:28.846Z,95884
2022-10-26T07:21:37.688Z,95882
2022-10-26T07:22:47.364Z,95882
2022-10-26T07:23:57.064Z,95884
2022-10-26T07:25:05.741Z,95885
2022-10-26T07:26:15.439Z,95888
2022-10-26T07:27:25.130Z,95882
2022-10-26T07:28:33.819Z,95882
2022-10-26T07:29:43.522Z,95882
2022-10-26T07:30:55.908Z,95883
2022-10-26T07:31:59.865Z,95886
2022-10-26T07:33:09.552Z,95883
2022-10-26T07:34:19.226Z,95884
2022-10-26T07:35:28.073Z,95888
2022-10-26T07:36:36.748Z,95887
2022-10-26T07:37:44.414Z,95893
2022-10-26T07:38:54.085Z,95888
2022-10-26T07:40:04.075Z,95893
2022-10-26T07:41:10.439Z,95886
2022-10-26T07:42:21.136Z,95887
2022-10-26T07:43:28.829Z,95888
2022-10-26T07:44:37.538Z,95886
2022-10-26T07:45:47.210Z,95883
2022-10-26T07:46:55.905Z,95878
2022-10-26T07:48:05.589Z,95883
2022-10-26T07:49:15.145Z,95881
2022-10-26T07:50:21.933Z,95880
2022-10-26T07:51:31.616Z,95881
2022-10-26T07:52:39.322Z,95877
2022-10-26T07:53:47.995Z,95876
2022-10-26T07:54:57.660Z,95872
2022-10-26T07:56:07.334Z,95872
2022-10-26T07:57:17.096Z,95868
2022-10-26T07:58:26.914Z,95868
2022-10-26T07:59:35.585Z,95861
2022-10-26T08:00:45.319Z,95865
2022-10-26T08:01:53.998Z,95859
2022-10-26T08:03:03.624Z,95861
2022-10-26T08:04:11.319Z,95863
2022-10-26T08:05:20.132Z,95856
2022-10-26T08:06:29.692Z,95862
2022-10-26T08:07:39.391Z,95859
2022-10-26T08:08:48.069Z,95857
2022-10-26T08:09:57.981Z,95853
2022-10-26T08:11:06.666Z,95856
2022-10-26T08:12:15.357Z,95860
2022-10-26T08:13:25.058Z,95857
2022-10-26T08:14:34.763Z,95856
2022-10-26T08:15:44.460Z,95851
2022-10-26T08:16:53.199Z,95857
2022-10-26T08:18:02.839Z,95857
2022-10-26T08:19:12.526Z,95858
2022-10-26T08:20:20.220Z,95862
2022-10-26T08:21:36.033Z,95865
2022-10-26T08:22:40.601Z,95867
2022-10-26T08:23:49.293Z,95872
2022-10-26T08:24:59.007Z,95876
2022-10-26T08:26:06.688Z,95871
2022-10-26T08:27:16.409Z,95864
2022-10-26T08:28:26.102Z,95862
2022-10-26T08:29:33.806Z,95869
2022-10-26T08:30:43.546Z,95866
2022-10-26T08:31:52.208Z,95868
2022-10-26T08:33:01.049Z,95867
2022-10-26T08:34:10.720Z,95868
2022-10-26T08:35:19.402Z,95872
2022-10-26T08:36:28.096Z,95875
2022-10-26T08:37:37.809Z,95871
2022-10-26T08:38:45.628Z,95870
2022-10-26T08:39:55.251Z,95867
2022-10-26T08:41:04.941Z,95867
2022-10-26T08:42:14.623Z,95872
2022-10-26T08:43:24.318Z,95876
2022-10-26T08:44:33.049Z,95873
2022-10-26T08:45:41.732Z,95874
2022-10-26T08:46:51.415Z,95879
2022-10-26T08:47:59.082Z,95878
2022-10-26T08:49:08.808Z,95877
2022-10-26T08:50:17.508Z,95877
2022-10-26T08:51:26.234Z,95877
2022-10-26T08:52:34.925Z,95879
2022-10-26T08:53:44.599Z,95879
2022-10-26T08:54:54.272Z,95877
2022-10-26T08:56:02.038Z,95879
2022-10-26T08:57:11.693Z,95883
2022-10-26T08:58:21.387Z,95887
2022-10-26T08:59:29.085Z,95884
2022-10-26T09:00:37.855Z,95887
2022-10-26T09:01:47.564Z,95894
2022-10-26T09:02:57.219Z,95894
2022-10-26T09:04:06.930Z,95895
2022-10-26T09:05:15.643Z,95895
2022-10-26T09:06:24.302Z,95896
2022-10-26T09:07:34.077Z,95899
2022-10-26T09:08:41.787Z,95895
2022-10-26T09:09:51.477Z,95893
2022-10-26T09:11:00.202Z,95900
2022-10-26T09:12:09.907Z,95899
2022-10-26T09:13:19.613Z,95899
2022-10-26T09:14:27.286Z,95900
2022-10-26T09:15:35.925Z,95901
2022-10-26T09:16:45.648Z,95898
2022-10-26T09:17:53.316Z,95892
2022-10-26T09:19:03.210Z,95903
2022-10-26T09:20:12.730Z,95899
2022-10-26T09:21:22.436Z,95900
2022-10-26T09:22:32.145Z,95901
2022-10-26T09:23:39.859Z,95902
2022-10-26T09:24:49.557Z,95901
2022-10-26T09:25:59.391Z,95903
2022-10-26T09:27:06.928Z,95902
2022-10-26T09:28:15.630Z,95902
2022-10-26T09:29:24.309Z,95901
2022-10-26T09:30:33.012Z,95900
2022-10-26T09:31:43.316Z,95897
2022-10-26T09:32:50.373Z,95905
2022-10-26T09:33:59.047Z,95903
2022-10-26T09:35:08.736Z,95905
2022-10-26T09:36:18.524Z,95909
2022-10-26T09:37:27.261Z,95909
2022-10-26T09:38:36.894Z,95912
2022-10-26T09:39:46.591Z,95913
2022-10-26T09:40:56.302Z,95909
2022-10-26T09:42:04.095Z,95909
2022-10-26T09:43:12.764Z,95912
2022-10-26T09:44:22.472Z,95910
2022-10-26T09:45:32.148Z,95915
2022-10-26T09:46:40.819Z,95914
2022-10-26T09:47:49.740Z,95919
2022-10-26T09:48:59.329Z,95919
2022-10-26T09:50:09.021Z,95922
2022-10-26T09:51:17.705Z,95925
2022-10-26T09:52:26.404Z,95928
2022-10-26T09:53:36.120Z,95928
2022-10-26T09:54:43.931Z,95933
2022-10-26T09:55:52.612Z,95935
2022-10-26T09:57:01.310Z,95936
2022-10-26T09:58:10.986Z,95937
2022-10-26T09:59:20.692Z,95944
2022-10-26T10:00:30.440Z,95941
2022-10-26T10:01:41.502Z,95941
2022-10-26T10:02:49.951Z,95947
2022-10-26T10:03:57.411Z,95947
2022-10-26T10:05:06.248Z,95947
2022-10-26T10:06:16.951Z,95945
2022-10-26T10:07:26.668Z,95946
2022-10-26T10:08:36.351Z,95953
2022-10-26T10:09:45.051Z,95950
2022-10-26T10:10:53.767Z,95953
2022-10-26T10:12:03.441Z,95951
2022-10-26T10:13:13.144Z,95949
2022-10-26T10:14:22.824Z,95943
2022-10-26T10:15:31.513Z,95950
2022-10-26T10:16:40.227Z,95959
2022-10-26T10:17:52.191Z,95958
2022-10-26T10:18:59.608Z,95951
2022-10-26T10:20:08.278Z,95954
2022-10-26T10:21:17.973Z,95954
2022-10-26T10:22:26.682Z,95955
2022-10-26T10:23:36.354Z,95959
2022-10-26T10:24:45.067Z,95956
2022-10-26T10:25:53.761Z,95959
2022-10-26T10:27:03.434Z,95959
2022-10-26T10:28:11.145Z,95961
2022-10-26T10:29:19.810Z,95964
2022-10-26T10:30:29.493Z,95962
2022-10-26T10:31:39.185Z,95961
2022-10-26T10:32:49.017Z,95958
2022-10-26T10:33:57.577Z,95960
2022-10-26T10:35:06.241Z,95960
2022-10-26T10:36:15.927Z,95964
2022-10-26T10:37:24.634Z,95964
2022-10-26T10:38:33.294Z,95963
2022-10-26T10:39:43.103Z,95968
2022-10-26T10:40:50.762Z,95965
2022-10-26T10:42:00.480Z,95965
2022-10-26T10:43:10.138Z,95966
2022-10-26T10:44:18.844Z,95969
2022-10-26T10:45:28.647Z,95969
2022-10-26T10:46:38.336Z,95970
2022-10-26T10:47:48.072Z,95969
2022-10-26T10:48:55.738Z,95975
2022-10-26T10:50:04.402Z,95968
2022-10-26T10:51:14.115Z,95969
2022-10-26T10:52:21.787Z,95972
2022-10-26T10:53:29.475Z,95971
2022-10-26T10:54:38.155Z,95972
2022-10-26T10:55:47.934Z,95975
2022-10-26T10:56:57.567Z,95969
2022-10-26T10:58:06.274Z,95974
2022-10-26T10:59:14.947Z,95970
2022-10-26T11:00:24.621Z,95967
2022-10-26T11:01:32.453Z,95972
2022-10-26T11:02:42.125Z,95975
2022-10-26T11:03:50.769Z,95975
2022-10-26T11:05:00.440Z,95974
2022-10-26T11:06:10.138Z,95980
2022-10-26T11:07:17.847Z,95977
2022-10-26T11:08:26.638Z,95985
2022-10-26T11:09:36.372Z,95978
2022-10-26T11:10:45.060Z,95977
2022-10-26T11:11:53.756Z,95976
2022-10-26T11:13:02.437Z,95977
2022-10-26T11:14:12.167Z,95978
2022-10-26T11:15:21.901Z,95980
2022-10-26T11:16:30.571Z,95984
2022-10-26T11:17:39.241Z,95980
2022-10-26T11:18:48.928Z,95979
2022-10-26T11:19:57.646Z,95981
2022-10-26T11:21:06.458Z,95981
2022-10-26T11:22:16.128Z,95980
2022-10-26T11:23:25.866Z,95977
2022-10-26T11:24:35.561Z,95975
2022-10-26T11:25:44.277Z,95986
2022-10-26T11:26:52.954Z,95977
2022-10-26T11:28:02.675Z,95983
2022-10-26T11:29:11.405Z,95984
2022-10-26T11:30:20.074Z,95982
2022-10-26T11:31:29.772Z,95986
2022-10-26T11:32:39.459Z,95980
2022-10-26T11:33:49.145Z,95978
2022-10-26T11:34:56.811Z,95976
2022-10-26T11:36:05.478Z,95986
2022-10-26T11:37:15.245Z,95977
2022-10-26T11:38:32.882Z,95986
2022-10-26T11:39:35.777Z,95982
2022-10-26T11:40:45.535Z,95986
2022-10-26T11:41:55.223Z,95988
2022-10-26T11:43:05.081Z,95990
2022-10-26T11:44:14.768Z,95993
2022-10-26T11:45:23.488Z,95990
2022-10-26T11:46:33.156Z,95995
2022-10-26T11:47:40.847Z,95994
2022-10-26T11:48:49.633Z,95990
2022-10-26T11:49:58.325Z,95993
2022-10-26T11:51:07.042Z,95996
2022-10-26T11:52:16.737Z,95995
2022-10-26T11:53:26.416Z,95997
2022-10-26T11:54:36.165Z,96002
2022-10-26T11:55:45.846Z,96004
2022-10-26T11:56:54.525Z,96000
2022-10-26T11:58:03.195Z,96005
2022-10-26T11:59:10.883Z,96010
2022-10-26T12:00:19.614Z,96008
2022-10-26T12:01:29.436Z,96004
2022-10-26T12:02:39.135Z,96000
2022-10-26T12:03:48.669Z,96003
2022-10-26T12:04:58.368Z,96005
2022-10-26T12:06:07.168Z,96013
2022-10-26T12:07:15.853Z,96010
2022-10-26T12:08:25.512Z,96012
2022-10-26T12:09:35.518Z,96011
2022-10-26T12:10:43.870Z,96011
2022-10-26T12:11:51.578Z,96009
2022-10-26T12:13:00.304Z,96012
2022-10-26T12:14:10.004Z,96013
2022-10-26T12:15:18.720Z,96016
2022-10-26T12:16:28.383Z,96015
2022-10-26T12:17:37.109Z,96015
2022-10-26T12:18:57.298Z,96026
2022-10-26T12:19:56.412Z,96023
2022-10-26T12:21:04.096Z,96024
2022-10-26T12:22:13.808Z,96021
2022-10-26T12:23:33.716Z,96021
2022-10-26T12:24:34.188Z,96029
2022-10-26T12:25:42.853Z,96033
2022-10-26T12:26:52.532Z,96031
2022-10-26T12:28:00.233Z,96029
2022-10-26T12:29:09.947Z,96029
2022-10-26T12:30:19.643Z,96026
2022-10-26T12:32:39.120Z,96031
2022-10-26T12:33:47.764Z,96032
2022-10-26T12:34:57.429Z,96034
2022-10-26T12:37:15.801Z,96038
2022-10-26T12:38:27.818Z,96032
2022-10-26T12:39:36.192Z,96029
2022-10-26T12:40:44.031Z,96034
2022-10-26T12:41:52.699Z,96034
2022-10-26T12:43:00.400Z,96036
2022-10-26T12:44:10.161Z,96037
2022-10-26T12:45:18.819Z,96037
2022-10-26T12:46:27.637Z,96042
2022-10-26T12:47:37.336Z,96046
2022-10-26T12:48:45.108Z,96041
2022-10-26T12:49:54.908Z,96039
2022-10-26T12:51:04.581Z,96042
2022-10-26T12:52:12.295Z,96045
2022-10-26T12:53:20.968Z,96052
2022-10-26T12:54:29.680Z,96045
2022-10-26T12:55:38.411Z,96042
2022-10-26T12:56:48.146Z,96044
2022-10-26T12:57:55.921Z,96047
2022-10-26T12:59:05.611Z,96053
2022-10-26T13:00:15.309Z,96046
2022-10-26T13:01:24.079Z,96053
2022-10-26T13:02:33.698Z,96051
2022-10-26T13:03:42.403Z,96047
2022-10-26T13:04:51.097Z,96051
2022-10-26T13:06:00.824Z,96051
2022-10-26T13:07:09.514Z,96042
2022-10-26T13:08:19.209Z,96046
2022-10-26T13:09:28.935Z,96048
2022-10-26T13:10:36.617Z,96053
2022-10-26T13:11:45.294Z,96046
2022-10-26T13:12:54.961Z,96045
2022-10-26T13:14:03.675Z,96049
2022-10-26T13:15:12.483Z,96046
2022-10-26T13:16:20.222Z,96044
2022-10-26T13:17:29.971Z,96048
2022-10-26T13:18:39.634Z,96048
2022-10-26T13:19:49.329Z,96046
2022-10-26T13:20:58.018Z,96052
2022-10-26T13:22:06.731Z,96044
2022-10-26T13:23:15.374Z,96043
2022-10-26T13:24:25.073Z,96045
2022-10-26T13:25:32.795Z,96051
2022-10-26T13:26:42.490Z,96048
2022-10-26T13:27:52.456Z,96051
2022-10-26T13:29:00.815Z,96046
2022-10-26T13:30:10.511Z,96048
2022-10-26T13:31:20.198Z,96052
2022-10-26T13:32:28.887Z,96054
2022-10-26T13:33:38.557Z,96056
2022-10-26T13:34:47.244Z,96054
2022-10-26T13:35:55.924Z,96053
2022-10-26T13:37:05.646Z,96061
2022-10-26T13:38:14.405Z,96064
2022-10-26T13:39:24.123Z,96066
2022-10-26T13:40:32.897Z,96066
2022-10-26T13:41:42.527Z,96072
2022-10-26T13:42:52.200Z,96068
2022-10-26T13:44:00.903Z,96067
2022-10-26T13:45:09.570Z,96070
2022-10-26T13:46:19.292Z,96071
2022-10-26T13:47:26.990Z,96074
2022-10-26T13:48:35.666Z,96079
2022-10-26T13:49:44.356Z,96076
2022-10-26T13:50:53.018Z,96076
2022-10-26T13:52:02.717Z,96080
2022-10-26T13:53:12.403Z,96075
2022-10-26T13:54:22.096Z,96080
2022-10-26T13:55:32.864Z,96082
2022-10-26T13:56:40.543Z,96076
2022-10-26T13:57:49.219Z,96078
2022-10-26T13:58:58.058Z,96077
2022-10-26T14:00:07.793Z,96076
2022-10-26T14:01:17.534Z,96073
2022-10-26T14:02:25.058Z,96078
2022-10-26T14:03:33.732Z,96079
2022-10-26T14:04:43.422Z,96081
2022-10-26T14:05:52.099Z,96080
2022-10-26T14:07:00.794Z,96087
2022-10-26T14:08:09.481Z,96080
2022-10-26T14:09:19.170Z,96081
2022-10-26T14:10:28.883Z,96085
2022-10-26T14:11:37.531Z,96079
2022-10-26T14:12:46.305Z,96087
2022-10-26T14:13:55.887Z,96081
2022-10-26T14:15:03.557Z,96086
2022-10-26T14:16:15.792Z,96085
2022-10-26T14:17:22.904Z,96090
2022-10-26T14:18:31.621Z,96088
2022-10-26T14:19:41.327Z,96086
2022-10-26T14:20:50.003Z,96088
2022-10-26T14:21:59.695Z,96090
2022-10-26T14:23:09.389Z,96086
2022-10-26T14:24:18.128Z,96084
2022-10-26T14:25:35.659Z,96087
2022-10-26T14:26:39.492Z,96088
2022-10-26T14:27:49.495Z,96091
2022-10-26T14:28:58.836Z,96091
2022-10-26T14:30:23.251Z,96089
2022-10-26T14:31:18.176Z,96091
2022-10-26T14:32:26.836Z,96087
2022-10-26T14:33:34.521Z,96088
2022-10-26T14:34:43.348Z,96084
2022-10-26T14:35:52.016Z,96087
2022-10-26T14:37:00.666Z,96088
2022-10-26T14:38:10.343Z,96097
2022-10-26T14:39:18.001Z,96092
2022-10-26T14:40:26.681Z,96093
2022-10-26T14:41:36.440Z,96095
2022-10-26T14:42:45.025Z,96097
2022-10-26T14:43:54.669Z,96090
2022-10-26T14:45:02.376Z,96095
2022-10-26T14:46:13.000Z,96095
2022-10-26T14:47:21.724Z,96094
2022-10-26T14:48:30.513Z,96093
2022-10-26T14:49:40.271Z,96101
2022-10-26T14:50:49.971Z,96102
2022-10-26T14:51:59.640Z,96104
2022-10-26T14:53:09.346Z,96106
2022-10-26T14:54:18.038Z,96109